createdAt,value
2023-05-16T00:01:30.344Z,12.00
2023-05-16T00:03:58.568Z,11.98
2023-05-16T00:06:26.920Z,11.90
2023-05-16T00:08:54.875Z,11.90
2023-05-16T00:11:23.245Z,11.86
2023-05-16T00:13:51.718Z,11.80
2023-05-16T00:16:21.936Z,11.80
2023-05-16T00:18:50.299Z,11.76
2023-05-16T00:24:44.396Z,11.66
2023-05-16T00:27:12.352Z,11.68
2023-05-16T00:29:40.324Z,11.60
2023-05-16T00:32:09.013Z,11.60
2023-05-16T00:34:37.112Z,11.60
2023-05-16T00:37:05.360Z,11.60
2023-05-16T00:39:33.189Z,11.60
2023-05-16T00:42:01.465Z,11.50
2023-05-16T00:44:30.008Z,11.50
2023-05-16T00:46:58.586Z,11.50
2023-05-16T00:49:26.893Z,11.48
2023-05-16T00:51:55.215Z,11.40
2023-05-16T00:54:23.135Z,11.40
2023-05-16T00:56:51.271Z,11.40
2023-05-16T00:59:20.449Z,11.40
2023-05-16T01:01:48.607Z,11.40
2023-05-16T01:04:17.803Z,11.40
2023-05-16T01:06:46.184Z,11.40
2023-05-16T01:09:14.038Z,11.40
2023-05-16T01:12:23.662Z,11.38
2023-05-16T01:15:15.838Z,11.30
2023-05-16T01:18:03.672Z,11.30
2023-05-16T01:20:56.973Z,11.30
2023-05-16T01:23:43.353Z,11.30
2023-05-16T01:26:27.871Z,11.26
2023-05-16T01:28:56.022Z,11.20
2023-05-16T01:31:24.331Z,11.20
2023-05-16T01:33:52.501Z,11.14
2023-05-16T01:37:00.994Z,11.10
2023-05-16T01:39:46.015Z,11.00
2023-05-16T01:42:15.495Z,10.98
2023-05-16T01:45:28.144Z,10.90
2023-05-16T01:48:04.499Z,10.86
2023-05-16T01:50:34.510Z,10.80
2023-05-16T01:53:12.413Z,10.70
2023-05-16T01:55:53.488Z,10.70
2023-05-16T01:58:23.031Z,10.70
2023-05-16T02:00:53.962Z,10.60
2023-05-16T02:03:21.843Z,10.60
2023-05-16T02:05:49.855Z,10.60
2023-05-16T02:08:17.958Z,10.50
2023-05-16T02:10:45.973Z,10.50
2023-05-16T02:13:13.783Z,10.50
2023-05-16T02:15:41.643Z,10.50
2023-05-16T02:18:10.231Z,10.48
2023-05-16T02:20:38.259Z,10.40
2023-05-16T02:23:06.180Z,10.40
2023-05-16T02:25:34.050Z,10.40
2023-05-16T02:28:02.474Z,10.40
2023-05-16T02:30:30.539Z,10.30
2023-05-16T02:32:58.562Z,10.30
2023-05-16T02:35:26.702Z,10.30
2023-05-16T02:37:55.903Z,10.30
2023-05-16T02:40:25.720Z,10.30
2023-05-16T02:42:53.921Z,10.32
2023-05-16T02:45:21.753Z,10.38
2023-05-16T02:47:49.552Z,10.40
2023-05-16T02:50:20.004Z,10.40
2023-05-16T02:52:48.322Z,10.40
2023-05-16T02:55:22.416Z,10.40
2023-05-16T02:57:51.177Z,10.40
2023-05-16T03:00:19.801Z,10.40
2023-05-16T03:02:48.290Z,10.40
2023-05-16T03:05:17.196Z,10.42
2023-05-16T03:07:44.960Z,10.50
2023-05-16T03:10:12.924Z,10.50
2023-05-16T03:12:40.778Z,10.54
2023-05-16T03:15:09.479Z,10.60
2023-05-16T03:17:37.660Z,10.70
2023-05-16T03:20:09.469Z,10.80
2023-05-16T03:22:37.298Z,10.90
2023-05-16T03:25:05.815Z,11.00
2023-05-16T03:27:33.683Z,11.10
2023-05-16T03:30:01.590Z,11.20
2023-05-16T03:32:29.512Z,11.30
2023-05-16T03:34:57.545Z,11.38
2023-05-16T03:37:25.788Z,11.48
2023-05-16T03:39:53.740Z,11.60
2023-05-16T03:42:21.638Z,11.68
2023-05-16T03:44:49.630Z,11.80
2023-05-16T03:47:17.437Z,11.88
2023-05-16T03:49:45.393Z,12.00
2023-05-16T03:52:13.245Z,12.10
2023-05-16T03:54:41.075Z,12.20
2023-05-16T03:57:09.416Z,12.30
2023-05-16T03:59:39.087Z,12.40
2023-05-16T04:02:06.900Z,12.50
2023-05-16T04:04:34.745Z,12.60
2023-05-16T04:07:02.745Z,12.70
2023-05-16T04:09:30.896Z,12.80
2023-05-16T04:12:01.999Z,12.84
2023-05-16T04:14:29.880Z,12.90
2023-05-16T04:16:57.866Z,13.00
2023-05-16T04:19:25.757Z,13.04
2023-05-16T04:21:53.622Z,13.10
2023-05-16T04:24:21.670Z,13.20
2023-05-16T04:26:51.340Z,13.30
2023-05-16T04:29:19.674Z,13.30
2023-05-16T04:31:48.059Z,13.40
2023-05-16T04:34:16.026Z,13.50
2023-05-16T04:36:43.959Z,13.54
2023-05-16T04:39:11.987Z,13.60
2023-05-16T04:41:39.782Z,13.70
2023-05-16T04:44:08.114Z,13.80
2023-05-16T04:46:35.976Z,13.86
2023-05-16T04:49:03.926Z,13.98
2023-05-16T04:51:33.859Z,14.04
2023-05-16T04:54:01.711Z,14.10
2023-05-16T04:56:29.902Z,14.12
2023-05-16T04:58:57.650Z,14.24
2023-05-16T05:01:25.672Z,14.30
2023-05-16T05:03:53.650Z,14.40
2023-05-16T05:06:21.598Z,14.48
2023-05-16T05:08:49.530Z,14.60
2023-05-16T05:11:17.540Z,14.64
2023-05-16T05:13:45.899Z,14.70
2023-05-16T05:16:13.746Z,14.76
2023-05-16T05:18:41.677Z,14.80
2023-05-16T05:21:09.505Z,14.82
2023-05-16T05:23:37.318Z,14.90
2023-05-16T05:26:05.524Z,14.96
2023-05-16T05:28:33.820Z,14.96
2023-05-16T05:31:01.815Z,15.00
2023-05-16T05:33:29.845Z,15.00
2023-05-16T05:35:57.746Z,15.10
2023-05-16T05:38:25.872Z,15.10
2023-05-16T05:40:53.760Z,15.10
2023-05-16T05:43:21.565Z,15.10
2023-05-16T05:45:49.504Z,15.16
2023-05-16T05:48:17.277Z,15.14
2023-05-16T05:50:45.081Z,15.10
2023-05-16T05:53:13.007Z,15.16
2023-05-16T05:55:43.677Z,15.20
2023-05-16T05:58:11.477Z,15.20
2023-05-16T06:00:39.364Z,15.30
2023-05-16T06:03:07.204Z,15.32
2023-05-16T06:05:35.136Z,15.40
2023-05-16T06:08:02.971Z,15.42
2023-05-16T06:10:31.320Z,15.50
2023-05-16T06:12:59.142Z,15.50
2023-05-16T06:15:27.251Z,15.56
2023-05-16T06:17:55.257Z,15.60
2023-05-16T06:20:23.209Z,15.60
2023-05-16T06:22:51.163Z,15.60
2023-05-16T06:25:19.097Z,15.66
2023-05-16T06:27:46.975Z,15.72
2023-05-16T06:30:16.014Z,15.80
2023-05-16T06:32:43.957Z,15.90
2023-05-16T06:35:11.926Z,15.94
2023-05-16T06:37:42.070Z,16.00
2023-05-16T06:40:11.658Z,16.00
2023-05-16T06:42:39.646Z,16.02
2023-05-16T06:45:09.004Z,16.10
2023-05-16T06:47:36.974Z,16.10
2023-05-16T06:50:05.777Z,16.10
2023-05-16T06:52:33.640Z,16.10
2023-05-16T06:55:01.574Z,16.10
2023-05-16T06:57:29.506Z,16.20
2023-05-16T06:59:57.655Z,16.30
2023-05-16T07:02:26.168Z,16.30
2023-05-16T07:04:54.196Z,16.20
2023-05-16T07:07:22.000Z,16.30
2023-05-16T07:09:49.917Z,16.40
2023-05-16T07:12:21.287Z,16.46
2023-05-16T07:14:49.296Z,16.50
2023-05-16T07:17:17.217Z,16.52
2023-05-16T07:19:45.069Z,16.60
2023-05-16T07:22:12.873Z,16.64
2023-05-16T07:24:40.770Z,16.70
2023-05-16T07:27:08.629Z,16.80
2023-05-16T07:29:37.521Z,16.82
2023-05-16T07:32:07.101Z,16.80
2023-05-16T07:34:35.051Z,16.88
2023-05-16T07:37:03.524Z,17.00
2023-05-16T07:39:31.683Z,16.90
2023-05-16T07:41:59.642Z,16.88
2023-05-16T07:44:28.884Z,16.96
2023-05-16T07:46:56.746Z,17.10
2023-05-16T07:49:24.573Z,17.10
2023-05-16T07:51:52.409Z,17.10
2023-05-16T07:54:20.492Z,17.00
2023-05-16T07:56:48.271Z,17.18
2023-05-16T07:59:16.140Z,17.20
2023-05-16T08:01:44.002Z,17.30
2023-05-16T08:04:12.181Z,17.30
2023-05-16T08:06:40.283Z,17.30
2023-05-16T08:09:09.364Z,17.40
2023-05-16T08:11:37.280Z,17.40
2023-05-16T08:14:05.216Z,17.30
2023-05-16T08:16:33.196Z,17.40
2023-05-16T08:19:01.398Z,17.40
2023-05-16T08:21:33.701Z,17.40
2023-05-16T08:24:01.668Z,17.50
2023-05-16T08:26:29.571Z,17.50
2023-05-16T08:28:57.402Z,17.50
2023-05-16T08:31:25.214Z,17.50
2023-05-16T08:33:53.237Z,17.54
2023-05-16T08:36:21.199Z,17.60
2023-05-16T08:38:50.176Z,17.60
2023-05-16T08:41:20.386Z,17.70
2023-05-16T08:43:49.628Z,17.70
2023-05-16T08:46:21.606Z,17.70
2023-05-16T08:48:53.008Z,17.70
2023-05-16T08:51:21.206Z,17.60
2023-05-16T08:53:54.661Z,17.60
2023-05-16T08:56:23.193Z,17.60
2023-05-16T08:58:52.017Z,17.60
2023-05-16T09:01:20.858Z,17.64
2023-05-16T09:03:50.397Z,17.70
2023-05-16T09:06:18.816Z,17.70
2023-05-16T09:08:46.924Z,17.70
2023-05-16T09:11:15.008Z,17.80
2023-05-16T09:13:42.965Z,17.90
2023-05-16T09:16:18.102Z,18.00
2023-05-16T09:18:54.498Z,18.10
2023-05-16T09:21:26.699Z,18.22
2023-05-16T09:23:55.071Z,18.30
2023-05-16T09:26:23.186Z,18.30
2023-05-16T09:28:55.922Z,18.20
2023-05-16T09:31:28.065Z,18.10
2023-05-16T09:33:56.893Z,18.20
2023-05-16T09:36:26.033Z,18.30
2023-05-16T09:38:54.247Z,18.30
2023-05-16T09:41:22.646Z,18.44
2023-05-16T09:43:50.614Z,18.60
2023-05-16T09:46:19.925Z,18.60
2023-05-16T09:48:48.405Z,18.70
2023-05-16T09:51:16.474Z,18.80
2023-05-16T09:53:44.441Z,18.90
2023-05-16T09:56:15.814Z,18.96
2023-05-16T09:58:44.784Z,19.00
2023-05-16T10:01:13.162Z,19.10
2023-05-16T10:03:42.836Z,19.20
2023-05-16T10:06:11.065Z,19.32
2023-05-16T10:08:40.536Z,19.48
2023-05-16T10:11:09.199Z,19.70
2023-05-16T10:13:37.904Z,19.80
2023-05-16T10:16:12.181Z,20.00
2023-05-16T10:18:40.614Z,20.00
2023-05-16T10:21:12.121Z,19.90
2023-05-16T10:23:44.215Z,19.90
2023-05-16T10:26:14.351Z,19.90
2023-05-16T10:28:42.743Z,19.90
2023-05-16T10:31:11.113Z,19.90
2023-05-16T10:33:39.693Z,19.94
2023-05-16T10:36:11.047Z,20.10
2023-05-16T10:38:39.468Z,20.10
2023-05-16T10:41:07.771Z,20.20
2023-05-16T10:43:36.939Z,20.30
2023-05-16T10:46:07.738Z,20.30
2023-05-16T10:48:40.861Z,20.30
2023-05-16T10:51:24.456Z,20.20
2023-05-16T10:53:53.857Z,20.10
2023-05-16T10:56:26.751Z,19.90
2023-05-16T10:58:54.750Z,19.80
2023-05-16T11:01:35.794Z,19.80
2023-05-16T11:04:06.402Z,19.90
2023-05-16T11:06:40.518Z,19.90
2023-05-16T11:09:12.067Z,19.90
2023-05-16T11:11:53.386Z,20.00
2023-05-16T11:14:26.438Z,20.20
2023-05-16T11:17:15.268Z,20.48
2023-05-16T11:19:51.426Z,20.60
2023-05-16T11:22:19.217Z,20.60
2023-05-16T11:25:05.040Z,20.68
2023-05-16T11:27:43.498Z,20.78
2023-05-16T11:30:17.799Z,20.80
2023-05-16T11:32:46.769Z,20.90
2023-05-16T11:35:17.091Z,21.00
2023-05-16T11:37:45.457Z,21.10
2023-05-16T11:40:14.103Z,21.20
2023-05-16T11:42:48.860Z,21.20
2023-05-16T11:45:22.747Z,21.30
2023-05-16T11:47:50.874Z,21.40
2023-05-16T11:50:23.700Z,21.44
2023-05-16T11:52:54.229Z,21.40
2023-05-16T11:55:40.991Z,21.50
2023-05-16T11:58:10.486Z,21.60
2023-05-16T12:00:48.497Z,21.70
2023-05-16T12:03:16.592Z,21.60
2023-05-16T12:05:54.634Z,21.64
2023-05-16T12:08:22.716Z,21.60
2023-05-16T12:10:51.973Z,21.58
2023-05-16T12:13:21.227Z,21.70
2023-05-16T12:15:49.254Z,21.80
2023-05-16T12:18:17.312Z,21.90
2023-05-16T12:20:45.245Z,22.00
2023-05-16T12:23:13.915Z,22.10
2023-05-16T12:25:46.912Z,22.20
2023-05-16T12:28:15.287Z,22.10
2023-05-16T12:30:44.441Z,22.10
2023-05-16T12:33:15.172Z,22.10
2023-05-16T12:35:46.826Z,22.10
2023-05-16T12:38:15.839Z,22.10
2023-05-16T12:40:44.216Z,22.10
2023-05-16T12:43:21.807Z,22.10
2023-05-16T12:45:54.960Z,22.00
2023-05-16T12:48:24.422Z,21.96
2023-05-16T12:50:53.484Z,21.88
2023-05-16T12:53:21.549Z,21.90
2023-05-16T12:55:49.437Z,22.00
2023-05-16T12:58:17.784Z,22.00
2023-05-16T13:00:45.754Z,22.00
2023-05-16T13:03:13.964Z,21.98
2023-05-16T13:05:42.425Z,22.00
2023-05-16T13:08:10.339Z,22.00
2023-05-16T13:10:38.390Z,22.14
2023-05-16T13:13:06.322Z,22.20
2023-05-16T13:15:34.475Z,22.30
2023-05-16T13:18:02.569Z,22.40
2023-05-16T13:20:30.934Z,22.40
2023-05-16T13:22:58.829Z,22.40
2023-05-16T13:25:26.959Z,22.40
2023-05-16T13:27:55.029Z,22.30
2023-05-16T13:30:23.400Z,22.10
2023-05-16T13:32:52.588Z,22.00
2023-05-16T13:35:21.063Z,22.02
2023-05-16T13:37:48.984Z,22.02
2023-05-16T13:40:17.489Z,22.00
2023-05-16T13:42:45.438Z,22.10
2023-05-16T13:45:13.449Z,22.18
2023-05-16T13:47:41.580Z,22.30
2023-05-16T13:50:10.558Z,22.30
2023-05-16T13:52:38.808Z,22.30
2023-05-16T13:55:06.940Z,22.30
2023-05-16T13:57:35.158Z,22.20
2023-05-16T14:00:35.132Z,22.20
2023-05-16T14:02:58.308Z,22.00
2023-05-16T14:05:26.489Z,22.00
2023-05-16T14:07:54.399Z,21.90
2023-05-16T14:10:22.303Z,21.80
2023-05-16T14:12:50.257Z,21.70
2023-05-16T14:15:18.340Z,21.76
2023-05-16T14:17:46.340Z,21.90
2023-05-16T14:20:15.580Z,22.10
2023-05-16T14:22:43.387Z,22.20
2023-05-16T14:25:11.287Z,22.30
2023-05-16T14:27:39.320Z,22.40
2023-05-16T14:30:08.333Z,22.40
2023-05-16T14:32:36.312Z,22.40
2023-05-16T14:35:05.481Z,22.40
2023-05-16T14:37:33.573Z,22.30
2023-05-16T14:40:01.489Z,22.30
2023-05-16T14:42:29.511Z,22.10
2023-05-16T14:44:57.822Z,22.00
2023-05-16T14:47:25.784Z,21.90
2023-05-16T14:49:54.329Z,21.80
2023-05-16T14:52:22.229Z,21.74
2023-05-16T14:54:49.990Z,21.70
2023-05-16T14:57:17.850Z,21.60
2023-05-16T14:59:47.011Z,21.50
2023-05-16T15:02:14.936Z,21.50
2023-05-16T15:04:43.026Z,21.52
2023-05-16T15:07:11.001Z,21.60
2023-05-16T15:09:38.882Z,21.60
2023-05-16T15:12:08.186Z,21.60
2023-05-16T15:14:36.086Z,21.60
2023-05-16T15:17:06.618Z,21.60
2023-05-16T15:19:36.074Z,21.50
2023-05-16T15:22:07.822Z,21.30
2023-05-16T15:24:36.380Z,21.06
2023-05-16T15:27:05.174Z,20.90
2023-05-16T15:29:33.046Z,20.80
2023-05-16T15:32:04.831Z,20.80
2023-05-16T15:34:35.092Z,20.70
2023-05-16T15:37:02.966Z,20.70
2023-05-16T15:39:30.806Z,20.70
2023-05-16T15:42:10.255Z,20.70
2023-05-16T15:44:39.901Z,20.80
2023-05-16T15:47:08.415Z,20.80
2023-05-16T15:49:36.506Z,20.70
2023-05-16T15:52:05.230Z,20.60
2023-05-16T15:54:33.422Z,20.50
2023-05-16T15:57:01.325Z,20.30
2023-05-16T15:59:29.213Z,20.16
2023-05-16T16:01:57.084Z,20.00
2023-05-16T16:04:24.980Z,19.88
2023-05-16T16:06:52.907Z,19.78
2023-05-16T16:09:20.785Z,19.60
2023-05-16T16:11:49.812Z,19.50
2023-05-16T16:14:17.855Z,19.30
2023-05-16T16:16:45.870Z,19.20
2023-05-16T16:19:13.872Z,19.10
2023-05-16T16:21:41.878Z,19.02
2023-05-16T16:24:09.812Z,19.00
2023-05-16T16:26:38.124Z,18.90
2023-05-16T16:29:06.645Z,18.80
2023-05-16T16:31:34.662Z,18.80
2023-05-16T16:34:02.666Z,18.70
2023-05-16T16:36:31.742Z,18.70
2023-05-16T16:38:59.822Z,18.66
2023-05-16T16:41:27.659Z,18.60
2023-05-16T16:43:55.900Z,18.50
2023-05-16T16:46:23.958Z,18.50
2023-05-16T16:48:52.487Z,18.48
2023-05-16T16:51:21.109Z,18.40
2023-05-16T16:53:48.853Z,18.40
2023-05-16T16:56:16.726Z,18.30
2023-05-16T16:58:44.632Z,18.28
2023-05-16T17:01:12.955Z,18.20
2023-05-16T17:03:40.978Z,18.20
2023-05-16T17:06:09.001Z,18.10
2023-05-16T17:08:36.888Z,18.10
2023-05-16T17:11:05.518Z,18.10
2023-05-16T17:13:34.048Z,18.10
2023-05-16T17:16:02.027Z,18.06
2023-05-16T17:18:30.197Z,18.00
2023-05-16T17:20:59.414Z,18.00
2023-05-16T17:23:27.283Z,18.00
2023-05-16T17:25:55.249Z,17.90
2023-05-16T17:28:23.297Z,17.90
2023-05-16T17:30:51.122Z,17.80
2023-05-16T17:33:19.425Z,17.80
2023-05-16T17:35:47.613Z,17.80
2023-05-16T17:38:15.696Z,17.70
2023-05-16T17:40:43.597Z,17.70
2023-05-16T17:43:11.435Z,17.60
2023-05-16T17:45:39.693Z,17.58
2023-05-16T17:48:08.113Z,17.50
2023-05-16T17:50:36.141Z,17.40
2023-05-16T17:53:04.975Z,17.40
2023-05-16T17:55:34.214Z,17.32
2023-05-16T17:58:03.287Z,17.30
2023-05-16T18:00:31.736Z,17.20
2023-05-16T18:02:59.645Z,17.20
2023-05-16T18:05:28.694Z,17.10
2023-05-16T18:07:57.084Z,17.10
2023-05-16T18:10:26.614Z,17.00
2023-05-16T18:12:57.513Z,17.00
2023-05-16T18:15:25.383Z,16.90
2023-05-16T18:17:53.362Z,16.90
2023-05-16T18:20:21.860Z,16.80
2023-05-16T18:22:51.895Z,16.80
2023-05-16T18:25:19.827Z,16.70
2023-05-16T18:27:47.720Z,16.70
2023-05-16T18:30:16.551Z,16.60
2023-05-16T18:32:44.641Z,16.60
2023-05-16T18:35:13.282Z,16.58
2023-05-16T18:37:44.081Z,16.50
2023-05-16T18:40:12.826Z,16.50
2023-05-16T18:42:40.780Z,16.40
2023-05-16T18:45:09.188Z,16.40
2023-05-16T18:47:37.098Z,16.40
2023-05-16T18:50:05.690Z,16.32
2023-05-16T18:52:35.383Z,16.30
2023-05-16T18:55:03.523Z,16.30
2023-05-16T18:57:31.626Z,16.24
2023-05-16T18:59:59.406Z,16.20
2023-05-16T19:02:40.835Z,16.10
2023-05-16T19:05:10.800Z,16.10
2023-05-16T19:07:39.015Z,16.00
2023-05-16T19:10:07.909Z,16.00
2023-05-16T19:12:35.848Z,16.00
2023-05-16T19:15:04.533Z,16.00
2023-05-16T19:17:32.745Z,16.00
2023-05-16T19:20:01.924Z,15.94
2023-05-16T19:22:29.808Z,15.90
2023-05-16T19:24:57.671Z,15.90
2023-05-16T19:27:25.434Z,15.90
2023-05-16T19:29:53.241Z,15.82
2023-05-16T19:32:21.055Z,15.80
2023-05-16T19:34:49.079Z,15.80
2023-05-16T19:37:17.018Z,15.70
2023-05-16T19:39:44.896Z,15.70
2023-05-16T19:42:12.795Z,15.60
2023-05-16T19:44:42.870Z,15.60
2023-05-16T19:47:10.658Z,15.50
2023-05-16T19:49:38.459Z,15.50
2023-05-16T19:52:09.176Z,15.50
2023-05-16T19:54:37.110Z,15.50
2023-05-16T19:57:05.673Z,15.50
2023-05-16T19:59:33.508Z,15.50
2023-05-16T20:02:01.505Z,15.50
2023-05-16T20:04:29.961Z,15.50
2023-05-16T20:06:58.226Z,15.50
2023-05-16T20:09:27.849Z,15.50
2023-05-16T20:11:57.457Z,15.50
2023-05-16T20:14:25.939Z,15.50
2023-05-16T20:16:53.775Z,15.58
2023-05-16T20:19:21.717Z,15.60
2023-05-16T20:21:49.697Z,15.60
2023-05-16T20:24:17.740Z,15.60
2023-05-16T20:26:45.700Z,15.60
2023-05-16T20:29:13.764Z,15.50
2023-05-16T20:31:43.759Z,15.50
2023-05-16T20:34:11.791Z,15.50
2023-05-16T20:36:39.698Z,15.48
2023-05-16T20:39:09.181Z,15.40
2023-05-16T20:41:37.133Z,15.40
2023-05-16T20:44:06.793Z,15.40
2023-05-16T20:46:34.820Z,15.30
2023-05-16T20:55:55.657Z,15.10
2023-05-16T20:58:24.887Z,15.16
2023-05-16T21:00:52.826Z,15.10
2023-05-16T21:03:21.410Z,15.10
2023-05-16T21:05:49.297Z,15.00
2023-05-16T21:08:17.197Z,15.00
2023-05-16T21:10:45.070Z,14.90
2023-05-16T21:13:12.875Z,14.90
2023-05-16T21:15:40.829Z,14.80
2023-05-16T21:18:08.749Z,14.70
2023-05-16T21:20:36.864Z,14.60
2023-05-16T21:23:04.814Z,14.60
2023-05-16T21:25:32.713Z,14.50
2023-05-16T21:28:00.596Z,14.42
2023-05-16T21:30:28.621Z,14.40
2023-05-16T21:32:56.652Z,14.40
2023-05-16T21:35:24.503Z,14.36
2023-05-16T21:37:52.344Z,14.30
2023-05-16T21:40:24.871Z,14.30
2023-05-16T21:42:52.740Z,14.30
2023-05-16T21:45:21.429Z,14.30
2023-05-16T21:47:49.322Z,14.30
2023-05-16T21:50:18.385Z,14.30
2023-05-16T21:52:46.575Z,14.30
2023-05-16T21:55:14.580Z,14.30
2023-05-16T21:57:42.530Z,14.30
2023-05-16T22:00:11.524Z,14.28
2023-05-16T22:02:40.758Z,14.30
2023-05-16T22:05:09.194Z,14.26
2023-05-16T22:07:37.978Z,14.20
2023-05-16T22:10:07.522Z,14.20
2023-05-16T22:12:35.695Z,14.20
2023-05-16T22:15:04.218Z,14.20
2023-05-16T22:17:32.299Z,14.10
2023-05-16T22:20:02.261Z,14.10
2023-05-16T22:22:30.286Z,14.10
2023-05-16T22:24:58.098Z,14.10
2023-05-16T22:27:25.934Z,14.10
2023-05-16T22:29:53.883Z,14.16
2023-05-16T22:32:22.482Z,14.14
2023-05-16T22:34:50.396Z,14.18
2023-05-16T22:37:18.328Z,14.20
2023-05-16T22:39:46.216Z,14.20
2023-05-16T22:42:14.192Z,14.20
2023-05-16T22:44:42.002Z,14.10
2023-05-16T22:47:09.794Z,14.12
2023-05-16T22:49:37.643Z,14.10
2023-05-16T22:52:05.780Z,14.10
2023-05-16T22:54:33.686Z,14.10
2023-05-16T22:57:01.514Z,14.10
2023-05-16T22:59:29.814Z,14.10
2023-05-16T23:01:57.746Z,14.08
2023-05-16T23:04:25.775Z,14.00
2023-05-16T23:06:53.601Z,14.00
2023-05-16T23:09:21.435Z,14.00
2023-05-16T23:11:49.344Z,13.90
2023-05-16T23:14:17.316Z,13.90
2023-05-16T23:16:45.248Z,13.90
2023-05-16T23:19:13.296Z,13.80
2023-05-16T23:21:41.387Z,13.80
2023-05-16T23:24:09.255Z,13.80
2023-05-16T23:26:37.140Z,13.70
2023-05-16T23:29:05.108Z,13.70
2023-05-16T23:31:32.961Z,13.70
2023-05-16T23:34:01.025Z,13.70
2023-05-16T23:36:29.019Z,13.70
2023-05-16T23:38:56.884Z,13.70
2023-05-16T23:41:24.873Z,13.68
2023-05-16T23:43:52.728Z,13.60
2023-05-16T23:46:20.673Z,13.60
2023-05-16T23:48:48.581Z,13.60
2023-05-16T23:51:16.485Z,13.60
2023-05-16T23:53:44.370Z,13.60
2023-05-16T23:56:12.762Z,13.58
2023-05-16T23:58:40.761Z,13.50
